sensor_id;sensor_type;location;lat;lon;timestamp;P1;durP1;ratioP1;P2;durP2;ratioP2
67995;SDS011;54772;53.544;49.324;2022-12-05T00:00:46;7.15;;;4.10;;
67995;SDS011;54772;53.544;49.324;2022-12-05T00:03:33;6.80;;;4.80;;
67995;SDS011;54772;53.544;49.324;2022-12-05T00:06:19;8.48;;;4.37;;
67995;SDS011;54772;53.544;49.324;2022-12-05T00:09:07;7.65;;;4.70;;
67995;SDS011;54772;53.544;49.324;2022-12-05T00:11:55;7.70;;;4.60;;
67995;SDS011;54772;53.544;49.324;2022-12-05T00:14:41;6.87;;;4.00;;
67995;SDS011;54772;53.544;49.324;2022-12-05T00:17:29;7.28;;;4.72;;
67995;SDS011;54772;53.544;49.324;2022-12-05T00:20:17;7.43;;;4.32;;
67995;SDS011;54772;53.544;49.324;2022-12-05T00:23:05;7.03;;;4.53;;
67995;SDS011;54772;53.544;49.324;2022-12-05T00:25:51;7.62;;;4.37;;
67995;SDS011;54772;53.544;49.324;2022-12-05T00:28:38;7.32;;;4.20;;
67995;SDS011;54772;53.544;49.324;2022-12-05T00:34:11;6.97;;;4.30;;
67995;SDS011;54772;53.544;49.324;2022-12-05T00:36:57;7.93;;;4.28;;
67995;SDS011;54772;53.544;49.324;2022-12-05T00:39:44;5.60;;;3.78;;
67995;SDS011;54772;53.544;49.324;2022-12-05T00:42:30;6.25;;;3.70;;
67995;SDS011;54772;53.544;49.324;2022-12-05T00:48:03;6.40;;;3.53;;
67995;SDS011;54772;53.544;49.324;2022-12-05T00:50:50;7.55;;;4.05;;
67995;SDS011;54772;53.544;49.324;2022-12-05T00:53:49;6.95;;;3.78;;
67995;SDS011;54772;53.544;49.324;2022-12-05T00:56:35;5.68;;;3.45;;
67995;SDS011;54772;53.544;49.324;2022-12-05T00:59:22;6.07;;;3.65;;
67995;SDS011;54772;53.544;49.324;2022-12-05T01:02:09;7.25;;;4.53;;
67995;SDS011;54772;53.544;49.324;2022-12-05T01:04:56;7.40;;;4.12;;
67995;SDS011;54772;53.544;49.324;2022-12-05T01:07:42;8.23;;;4.82;;
67995;SDS011;54772;53.544;49.324;2022-12-05T01:10:29;7.37;;;3.92;;
67995;SDS011;54772;53.544;49.324;2022-12-05T01:13:15;7.10;;;4.55;;
67995;SDS011;54772;53.544;49.324;2022-12-05T01:16:02;7.78;;;4.68;;
67995;SDS011;54772;53.544;49.324;2022-12-05T01:18:49;6.90;;;4.30;;
67995;SDS011;54772;53.544;49.324;2022-12-05T01:24:23;6.37;;;4.20;;
67995;SDS011;54772;53.544;49.324;2022-12-05T01:27:10;6.20;;;3.60;;
67995;SDS011;54772;53.544;49.324;2022-12-05T01:29:56;8.18;;;4.45;;
67995;SDS011;54772;53.544;49.324;2022-12-05T01:35:30;7.07;;;4.07;;
67995;SDS011;54772;53.544;49.324;2022-12-05T01:38:17;7.90;;;4.32;;
67995;SDS011;54772;53.544;49.324;2022-12-05T01:43:55;8.07;;;4.10;;
67995;SDS011;54772;53.544;49.324;2022-12-05T01:46:48;7.15;;;4.50;;
67995;SDS011;54772;53.544;49.324;2022-12-05T01:49:36;5.43;;;3.62;;
67995;SDS011;54772;53.544;49.324;2022-12-05T01:52:26;8.98;;;4.90;;
67995;SDS011;54772;53.544;49.324;2022-12-05T01:55:14;6.93;;;3.95;;
67995;SDS011;54772;53.544;49.324;2022-12-05T01:58:02;7.28;;;4.18;;
67995;SDS011;54772;53.544;49.324;2022-12-05T02:00:51;6.40;;;3.95;;
67995;SDS011;54772;53.544;49.324;2022-12-05T02:03:37;8.88;;;4.55;;
67995;SDS011;54772;53.544;49.324;2022-12-05T02:06:25;6.70;;;3.90;;
67995;SDS011;54772;53.544;49.324;2022-12-05T02:09:13;8.02;;;3.70;;
67995;SDS011;54772;53.544;49.324;2022-12-05T02:14:54;6.05;;;3.72;;
67995;SDS011;54772;53.544;49.324;2022-12-05T02:18:03;6.53;;;3.53;;
67995;SDS011;54772;53.544;49.324;2022-12-05T02:26:58;7.95;;;4.53;;
67995;SDS011;54772;53.544;49.324;2022-12-05T02:29:53;5.43;;;3.50;;
67995;SDS011;54772;53.544;49.324;2022-12-05T02:33:02;6.47;;;3.65;;
67995;SDS011;54772;53.544;49.324;2022-12-05T02:36:02;6.25;;;3.70;;
67995;SDS011;54772;53.544;49.324;2022-12-05T02:39:02;7.10;;;3.97;;
67995;SDS011;54772;53.544;49.324;2022-12-05T02:42:02;7.70;;;4.10;;
67995;SDS011;54772;53.544;49.324;2022-12-05T02:45:07;7.80;;;4.43;;
67995;SDS011;54772;53.544;49.324;2022-12-05T02:47:55;8.80;;;4.10;;
67995;SDS011;54772;53.544;49.324;2022-12-05T02:50:42;7.72;;;4.32;;
67995;SDS011;54772;53.544;49.324;2022-12-05T02:56:16;5.95;;;3.83;;
67995;SDS011;54772;53.544;49.324;2022-12-05T03:01:49;7.25;;;4.28;;
67995;SDS011;54772;53.544;49.324;2022-12-05T03:04:36;7.97;;;4.25;;
67995;SDS011;54772;53.544;49.324;2022-12-05T03:07:23;6.00;;;3.58;;
67995;SDS011;54772;53.544;49.324;2022-12-05T03:10:10;8.52;;;4.22;;
67995;SDS011;54772;53.544;49.324;2022-12-05T03:12:59;7.57;;;4.70;;
67995;SDS011;54772;53.544;49.324;2022-12-05T03:15:59;7.18;;;4.57;;
67995;SDS011;54772;53.544;49.324;2022-12-05T03:18:50;8.77;;;4.70;;
67995;SDS011;54772;53.544;49.324;2022-12-05T03:21:51;7.87;;;4.20;;
67995;SDS011;54772;53.544;49.324;2022-12-05T03:24:39;7.15;;;4.32;;
67995;SDS011;54772;53.544;49.324;2022-12-05T03:30:42;8.52;;;4.18;;
67995;SDS011;54772;53.544;49.324;2022-12-05T03:33:29;7.15;;;4.50;;
67995;SDS011;54772;53.544;49.324;2022-12-05T03:36:22;7.75;;;4.12;;
67995;SDS011;54772;53.544;49.324;2022-12-05T03:39:17;9.02;;;4.43;;
67995;SDS011;54772;53.544;49.324;2022-12-05T03:42:12;8.60;;;4.80;;
67995;SDS011;54772;53.544;49.324;2022-12-05T03:45:10;8.57;;;4.55;;
67995;SDS011;54772;53.544;49.324;2022-12-05T03:48:07;9.57;;;4.75;;
67995;SDS011;54772;53.544;49.324;2022-12-05T03:50:58;9.63;;;4.78;;
67995;SDS011;54772;53.544;49.324;2022-12-05T03:53:50;8.13;;;4.70;;
67995;SDS011;54772;53.544;49.324;2022-12-05T03:56:42;9.13;;;5.25;;
67995;SDS011;54772;53.544;49.324;2022-12-05T03:59:38;8.27;;;5.50;;
67995;SDS011;54772;53.544;49.324;2022-12-05T04:05:22;8.27;;;4.93;;
67995;SDS011;54772;53.544;49.324;2022-12-05T04:08:29;8.65;;;5.18;;
67995;SDS011;54772;53.544;49.324;2022-12-05T04:11:20;9.40;;;4.90;;
67995;SDS011;54772;53.544;49.324;2022-12-05T04:14:13;9.98;;;5.65;;
67995;SDS011;54772;53.544;49.324;2022-12-05T04:17:06;14.00;;;5.37;;
67995;SDS011;54772;53.544;49.324;2022-12-05T04:20:02;13.27;;;5.95;;
67995;SDS011;54772;53.544;49.324;2022-12-05T04:23:09;12.88;;;5.85;;
67995;SDS011;54772;53.544;49.324;2022-12-05T04:28:48;8.15;;;5.05;;
67995;SDS011;54772;53.544;49.324;2022-12-05T04:31:41;10.50;;;5.67;;
67995;SDS011;54772;53.544;49.324;2022-12-05T04:34:28;13.62;;;5.05;;
67995;SDS011;54772;53.544;49.324;2022-12-05T04:37:16;8.82;;;4.80;;
67995;SDS011;54772;53.544;49.324;2022-12-05T04:40:13;9.45;;;4.93;;
67995;SDS011;54772;53.544;49.324;2022-12-05T04:43:08;7.87;;;4.53;;
67995;SDS011;54772;53.544;49.324;2022-12-05T04:45:56;7.78;;;4.65;;
67995;SDS011;54772;53.544;49.324;2022-12-05T04:48:45;9.10;;;5.00;;
67995;SDS011;54772;53.544;49.324;2022-12-05T04:51:35;8.60;;;4.93;;
67995;SDS011;54772;53.544;49.324;2022-12-05T04:54:24;7.70;;;4.85;;
67995;SDS011;54772;53.544;49.324;2022-12-05T04:57:18;8.35;;;4.22;;
67995;SDS011;54772;53.544;49.324;2022-12-05T05:00:10;8.55;;;4.85;;
67995;SDS011;54772;53.544;49.324;2022-12-05T05:02:59;8.48;;;3.65;;
67995;SDS011;54772;53.544;49.324;2022-12-05T05:05:53;6.72;;;4.22;;
67995;SDS011;54772;53.544;49.324;2022-12-05T05:08:47;8.07;;;4.60;;
67995;SDS011;54772;53.544;49.324;2022-12-05T05:11:35;7.32;;;4.47;;
67995;SDS011;54772;53.544;49.324;2022-12-05T05:14:22;10.07;;;5.20;;
67995;SDS011;54772;53.544;49.324;2022-12-05T05:17:09;8.10;;;4.65;;
67995;SDS011;54772;53.544;49.324;2022-12-05T05:19:55;10.30;;;4.70;;
67995;SDS011;54772;53.544;49.324;2022-12-05T05:23:02;8.82;;;4.80;;
67995;SDS011;54772;53.544;49.324;2022-12-05T05:25:53;7.15;;;4.25;;
67995;SDS011;54772;53.544;49.324;2022-12-05T05:28:41;7.57;;;4.95;;
67995;SDS011;54772;53.544;49.324;2022-12-05T05:31:28;6.90;;;4.30;;
67995;SDS011;54772;53.544;49.324;2022-12-05T05:34:14;6.30;;;4.10;;
67995;SDS011;54772;53.544;49.324;2022-12-05T05:37:01;7.78;;;4.47;;
67995;SDS011;54772;53.544;49.324;2022-12-05T05:39:47;6.05;;;3.65;;
67995;SDS011;54772;53.544;49.324;2022-12-05T05:42:34;7.28;;;4.35;;
67995;SDS011;54772;53.544;49.324;2022-12-05T05:45:20;7.95;;;4.60;;
67995;SDS011;54772;53.544;49.324;2022-12-05T05:48:07;7.32;;;4.22;;
67995;SDS011;54772;53.544;49.324;2022-12-05T05:50:54;12.35;;;4.03;;
67995;SDS011;54772;53.544;49.324;2022-12-05T05:53:43;7.35;;;4.55;;
67995;SDS011;54772;53.544;49.324;2022-12-05T05:56:29;8.60;;;5.05;;
67995;SDS011;54772;53.544;49.324;2022-12-05T05:59:16;9.02;;;5.50;;
67995;SDS011;54772;53.544;49.324;2022-12-05T06:02:02;14.77;;;5.35;;
67995;SDS011;54772;53.544;49.324;2022-12-05T06:07:36;9.98;;;5.37;;
67995;SDS011;54772;53.544;49.324;2022-12-05T06:10:22;9.52;;;5.30;;
67995;SDS011;54772;53.544;49.324;2022-12-05T06:13:09;8.80;;;5.25;;
67995;SDS011;54772;53.544;49.324;2022-12-05T06:18:43;9.20;;;5.63;;
67995;SDS011;54772;53.544;49.324;2022-12-05T06:21:30;9.27;;;5.30;;
67995;SDS011;54772;53.544;49.324;2022-12-05T06:24:16;10.25;;;5.43;;
67995;SDS011;54772;53.544;49.324;2022-12-05T06:27:03;10.07;;;5.32;;
67995;SDS011;54772;53.544;49.324;2022-12-05T06:29:49;9.68;;;5.30;;
67995;SDS011;54772;53.544;49.324;2022-12-05T06:32:37;11.05;;;5.80;;
67995;SDS011;54772;53.544;49.324;2022-12-05T06:38:10;10.70;;;6.28;;
67995;SDS011;54772;53.544;49.324;2022-12-05T06:40:57;9.25;;;5.07;;
67995;SDS011;54772;53.544;49.324;2022-12-05T06:43:44;10.48;;;5.40;;
67995;SDS011;54772;53.544;49.324;2022-12-05T06:46:31;12.65;;;7.43;;
67995;SDS011;54772;53.544;49.324;2022-12-05T06:49:17;9.82;;;5.90;;
67995;SDS011;54772;53.544;49.324;2022-12-05T06:52:04;9.98;;;5.50;;
67995;SDS011;54772;53.544;49.324;2022-12-05T06:54:51;13.32;;;6.70;;
67995;SDS011;54772;53.544;49.324;2022-12-05T06:57:38;9.45;;;5.72;;
67995;SDS011;54772;53.544;49.324;2022-12-05T07:00:24;14.32;;;6.85;;
67995;SDS011;54772;53.544;49.324;2022-12-05T07:03:29;14.55;;;7.95;;
67995;SDS011;54772;53.544;49.324;2022-12-05T07:06:16;11.77;;;6.82;;
67995;SDS011;54772;53.544;49.324;2022-12-05T07:09:03;12.45;;;6.70;;
67995;SDS011;54772;53.544;49.324;2022-12-05T07:11:47;10.27;;;6.10;;
67995;SDS011;54772;53.544;49.324;2022-12-05T07:14:36;8.48;;;5.82;;
67995;SDS011;54772;53.544;49.324;2022-12-05T07:17:23;9.52;;;5.70;;
67995;SDS011;54772;53.544;49.324;2022-12-05T07:20:09;8.48;;;5.40;;
67995;SDS011;54772;53.544;49.324;2022-12-05T07:25:43;9.10;;;4.12;;
67995;SDS011;54772;53.544;49.324;2022-12-05T07:28:29;7.65;;;5.07;;
67995;SDS011;54772;53.544;49.324;2022-12-05T07:31:18;8.73;;;4.70;;
67995;SDS011;54772;53.544;49.324;2022-12-05T07:34:06;9.48;;;5.47;;
67995;SDS011;54772;53.544;49.324;2022-12-05T07:36:53;10.73;;;5.43;;
67995;SDS011;54772;53.544;49.324;2022-12-05T07:39:40;9.82;;;5.15;;
67995;SDS011;54772;53.544;49.324;2022-12-05T07:42:27;9.57;;;5.45;;
67995;SDS011;54772;53.544;49.324;2022-12-05T07:45:13;9.18;;;4.43;;
67995;SDS011;54772;53.544;49.324;2022-12-05T07:48:00;8.00;;;4.82;;
67995;SDS011;54772;53.544;49.324;2022-12-05T07:50:46;10.73;;;5.05;;
67995;SDS011;54772;53.544;49.324;2022-12-05T07:53:33;4.80;;;3.15;;
67995;SDS011;54772;53.544;49.324;2022-12-05T07:59:07;7.60;;;4.68;;
67995;SDS011;54772;53.544;49.324;2022-12-05T08:01:59;5.97;;;3.72;;
67995;SDS011;54772;53.544;49.324;2022-12-05T08:04:46;9.73;;;4.93;;
67995;SDS011;54772;53.544;49.324;2022-12-05T08:07:33;12.88;;;5.57;;
67995;SDS011;54772;53.544;49.324;2022-12-05T08:10:20;7.03;;;3.78;;
67995;SDS011;54772;53.544;49.324;2022-12-05T08:13:07;7.05;;;4.03;;
67995;SDS011;54772;53.544;49.324;2022-12-05T08:18:40;14.52;;;6.18;;
67995;SDS011;54772;53.544;49.324;2022-12-05T08:21:27;8.57;;;4.62;;
67995;SDS011;54772;53.544;49.324;2022-12-05T08:24:14;9.45;;;5.32;;
67995;SDS011;54772;53.544;49.324;2022-12-05T08:29:49;10.30;;;5.25;;
67995;SDS011;54772;53.544;49.324;2022-12-05T08:32:36;8.55;;;5.47;;
67995;SDS011;54772;53.544;49.324;2022-12-05T08:35:23;8.98;;;4.95;;
67995;SDS011;54772;53.544;49.324;2022-12-05T08:38:10;8.85;;;5.10;;
67995;SDS011;54772;53.544;49.324;2022-12-05T08:41:01;8.93;;;5.37;;
67995;SDS011;54772;53.544;49.324;2022-12-05T08:43:49;9.07;;;5.65;;
67995;SDS011;54772;53.544;49.324;2022-12-05T08:46:36;10.60;;;5.68;;
67995;SDS011;54772;53.544;49.324;2022-12-05T08:49:23;8.10;;;4.57;;
67995;SDS011;54772;53.544;49.324;2022-12-05T08:52:10;8.63;;;5.37;;
67995;SDS011;54772;53.544;49.324;2022-12-05T08:54:56;7.15;;;5.37;;
67995;SDS011;54772;53.544;49.324;2022-12-05T08:57:43;9.02;;;4.97;;
67995;SDS011;54772;53.544;49.324;2022-12-05T09:00:30;9.82;;;5.72;;
67995;SDS011;54772;53.544;49.324;2022-12-05T09:03:17;9.38;;;4.80;;
67995;SDS011;54772;53.544;49.324;2022-12-05T09:09:06;9.13;;;5.47;;
67995;SDS011;54772;53.544;49.324;2022-12-05T09:11:55;8.25;;;4.55;;
67995;SDS011;54772;53.544;49.324;2022-12-05T09:14:42;8.38;;;5.37;;
67995;SDS011;54772;53.544;49.324;2022-12-05T09:17:29;8.35;;;5.62;;
67995;SDS011;54772;53.544;49.324;2022-12-05T09:20:16;12.52;;;5.72;;
67995;SDS011;54772;53.544;49.324;2022-12-05T09:23:06;10.27;;;5.65;;
67995;SDS011;54772;53.544;49.324;2022-12-05T09:25:53;9.38;;;5.12;;
67995;SDS011;54772;53.544;49.324;2022-12-05T09:28:42;10.82;;;5.43;;
67995;SDS011;54772;53.544;49.324;2022-12-05T09:31:29;9.00;;;4.53;;
67995;SDS011;54772;53.544;49.324;2022-12-05T09:34:16;10.85;;;5.45;;
67995;SDS011;54772;53.544;49.324;2022-12-05T09:37:04;7.55;;;4.28;;
67995;SDS011;54772;53.544;49.324;2022-12-05T09:39:52;7.07;;;4.97;;
67995;SDS011;54772;53.544;49.324;2022-12-05T09:45:38;7.57;;;4.05;;
67995;SDS011;54772;53.544;49.324;2022-12-05T09:48:31;8.57;;;5.80;;
67995;SDS011;54772;53.544;49.324;2022-12-05T09:51:18;9.35;;;5.72;;
67995;SDS011;54772;53.544;49.324;2022-12-05T09:54:06;8.15;;;5.45;;
67995;SDS011;54772;53.544;49.324;2022-12-05T09:56:54;8.57;;;5.75;;
67995;SDS011;54772;53.544;49.324;2022-12-05T09:59:41;9.95;;;4.95;;
67995;SDS011;54772;53.544;49.324;2022-12-05T10:02:31;10.85;;;6.18;;
67995;SDS011;54772;53.544;49.324;2022-12-05T10:08:45;8.68;;;5.72;;
67995;SDS011;54772;53.544;49.324;2022-12-05T10:15:11;11.35;;;6.30;;
67995;SDS011;54772;53.544;49.324;2022-12-05T10:18:45;8.52;;;5.32;;
67995;SDS011;54772;53.544;49.324;2022-12-05T10:21:46;12.40;;;5.65;;
67995;SDS011;54772;53.544;49.324;2022-12-05T10:24:42;6.80;;;4.25;;
67995;SDS011;54772;53.544;49.324;2022-12-05T10:27:39;11.00;;;5.05;;
67995;SDS011;54772;53.544;49.324;2022-12-05T10:30:37;10.77;;;6.18;;
67995;SDS011;54772;53.544;49.324;2022-12-05T10:33:25;9.35;;;5.10;;
67995;SDS011;54772;53.544;49.324;2022-12-05T10:36:18;10.75;;;4.93;;
67995;SDS011;54772;53.544;49.324;2022-12-05T10:39:05;12.73;;;4.82;;
67995;SDS011;54772;53.544;49.324;2022-12-05T10:41:52;8.98;;;5.37;;
67995;SDS011;54772;53.544;49.324;2022-12-05T10:44:40;8.77;;;4.60;;
67995;SDS011;54772;53.544;49.324;2022-12-05T10:47:28;8.00;;;4.80;;
67995;SDS011;54772;53.544;49.324;2022-12-05T10:53:05;7.28;;;4.30;;
67995;SDS011;54772;53.544;49.324;2022-12-05T10:55:52;9.82;;;5.87;;
67995;SDS011;54772;53.544;49.324;2022-12-05T10:58:39;8.02;;;5.30;;
67995;SDS011;54772;53.544;49.324;2022-12-05T11:01:45;8.35;;;5.40;;
67995;SDS011;54772;53.544;49.324;2022-12-05T11:04:42;13.60;;;6.85;;
67995;SDS011;54772;53.544;49.324;2022-12-05T11:10:33;11.60;;;6.53;;
67995;SDS011;54772;53.544;49.324;2022-12-05T11:13:23;7.80;;;5.07;;
67995;SDS011;54772;53.544;49.324;2022-12-05T11:16:15;13.10;;;5.43;;
67995;SDS011;54772;53.544;49.324;2022-12-05T11:22:16;7.90;;;5.23;;
67995;SDS011;54772;53.544;49.324;2022-12-05T11:25:22;8.82;;;5.72;;
67995;SDS011;54772;53.544;49.324;2022-12-05T11:28:22;10.60;;;5.70;;
67995;SDS011;54772;53.544;49.324;2022-12-05T11:37:04;7.07;;;4.62;;
67995;SDS011;54772;53.544;49.324;2022-12-05T11:55:35;8.30;;;5.03;;
67995;SDS011;54772;53.544;49.324;2022-12-05T12:08:12;12.57;;;5.32;;
67995;SDS011;54772;53.544;49.324;2022-12-05T12:11:07;14.30;;;7.93;;
67995;SDS011;54772;53.544;49.324;2022-12-05T12:14:23;14.87;;;7.83;;
67995;SDS011;54772;53.544;49.324;2022-12-05T12:29:40;11.40;;;6.65;;
67995;SDS011;54772;53.544;49.324;2022-12-05T12:32:56;8.98;;;5.75;;
67995;SDS011;54772;53.544;49.324;2022-12-05T12:42:23;10.18;;;6.80;;
67995;SDS011;54772;53.544;49.324;2022-12-05T12:45:19;10.55;;;6.78;;
67995;SDS011;54772;53.544;49.324;2022-12-05T12:51:20;10.50;;;5.80;;
67995;SDS011;54772;53.544;49.324;2022-12-05T12:57:30;11.70;;;7.40;;
67995;SDS011;54772;53.544;49.324;2022-12-05T13:09:31;11.38;;;5.90;;
67995;SDS011;54772;53.544;49.324;2022-12-05T13:12:28;9.23;;;5.78;;
67995;SDS011;54772;53.544;49.324;2022-12-05T13:15:18;9.13;;;6.00;;
67995;SDS011;54772;53.544;49.324;2022-12-05T13:18:31;8.82;;;5.32;;
67995;SDS011;54772;53.544;49.324;2022-12-05T13:24:05;9.18;;;5.35;;
67995;SDS011;54772;53.544;49.324;2022-12-05T13:26:59;7.07;;;4.78;;
67995;SDS011;54772;53.544;49.324;2022-12-05T13:29:51;9.40;;;5.10;;
67995;SDS011;54772;53.544;49.324;2022-12-05T13:32:45;9.50;;;6.18;;
67995;SDS011;54772;53.544;49.324;2022-12-05T13:38:37;8.90;;;5.15;;
67995;SDS011;54772;53.544;49.324;2022-12-05T13:41:50;8.52;;;4.70;;
67995;SDS011;54772;53.544;49.324;2022-12-05T13:45:06;8.93;;;5.43;;
67995;SDS011;54772;53.544;49.324;2022-12-05T13:51:13;10.77;;;5.57;;
67995;SDS011;54772;53.544;49.324;2022-12-05T13:54:15;10.70;;;6.50;;
67995;SDS011;54772;53.544;49.324;2022-12-05T13:57:02;9.82;;;5.80;;
67995;SDS011;54772;53.544;49.324;2022-12-05T14:00:00;8.95;;;6.10;;
67995;SDS011;54772;53.544;49.324;2022-12-05T14:03:17;10.63;;;5.32;;
67995;SDS011;54772;53.544;49.324;2022-12-05T14:15:00;9.13;;;5.93;;
67995;SDS011;54772;53.544;49.324;2022-12-05T14:17:48;9.07;;;5.32;;
67995;SDS011;54772;53.544;49.324;2022-12-05T14:23:54;10.98;;;5.43;;
67995;SDS011;54772;53.544;49.324;2022-12-05T14:27:14;8.02;;;4.80;;
67995;SDS011;54772;53.544;49.324;2022-12-05T14:30:19;8.32;;;5.20;;
67995;SDS011;54772;53.544;49.324;2022-12-05T14:33:15;9.60;;;6.97;;
67995;SDS011;54772;53.544;49.324;2022-12-05T14:36:06;9.95;;;5.60;;
67995;SDS011;54772;53.544;49.324;2022-12-05T14:38:57;9.88;;;5.55;;
67995;SDS011;54772;53.544;49.324;2022-12-05T14:41:44;12.10;;;7.18;;
67995;SDS011;54772;53.544;49.324;2022-12-05T14:44:31;10.98;;;6.25;;
67995;SDS011;54772;53.544;49.324;2022-12-05T14:47:23;11.75;;;6.47;;
67995;SDS011;54772;53.544;49.324;2022-12-05T14:56:20;12.82;;;7.05;;
67995;SDS011;54772;53.544;49.324;2022-12-05T14:59:16;11.20;;;6.78;;
67995;SDS011;54772;53.544;49.324;2022-12-05T15:02:24;12.37;;;7.22;;
67995;SDS011;54772;53.544;49.324;2022-12-05T15:05:17;11.52;;;7.20;;
67995;SDS011;54772;53.544;49.324;2022-12-05T15:08:05;10.60;;;6.07;;
67995;SDS011;54772;53.544;49.324;2022-12-05T15:10:53;10.90;;;6.82;;
67995;SDS011;54772;53.544;49.324;2022-12-05T15:13:40;12.65;;;7.30;;
67995;SDS011;54772;53.544;49.324;2022-12-05T15:16:27;13.13;;;8.20;;
67995;SDS011;54772;53.544;49.324;2022-12-05T15:19:21;13.40;;;7.55;;
67995;SDS011;54772;53.544;49.324;2022-12-05T15:22:18;10.98;;;6.55;;
67995;SDS011;54772;53.544;49.324;2022-12-05T15:25:40;10.65;;;5.87;;
67995;SDS011;54772;53.544;49.324;2022-12-05T15:29:08;11.98;;;6.53;;
67995;SDS011;54772;53.544;49.324;2022-12-05T15:35:00;11.12;;;7.53;;
67995;SDS011;54772;53.544;49.324;2022-12-05T15:37:59;13.43;;;8.00;;
67995;SDS011;54772;53.544;49.324;2022-12-05T15:40:53;14.07;;;9.18;;
67995;SDS011;54772;53.544;49.324;2022-12-05T15:46:26;14.32;;;8.80;;
67995;SDS011;54772;53.544;49.324;2022-12-05T15:49:20;16.70;;;8.85;;
67995;SDS011;54772;53.544;49.324;2022-12-05T15:52:24;13.68;;;7.78;;
67995;SDS011;54772;53.544;49.324;2022-12-05T15:55:17;14.85;;;8.52;;
67995;SDS011;54772;53.544;49.324;2022-12-05T15:58:25;15.23;;;8.95;;
67995;SDS011;54772;53.544;49.324;2022-12-05T16:01:19;15.90;;;9.77;;
67995;SDS011;54772;53.544;49.324;2022-12-05T16:04:12;18.12;;;10.20;;
67995;SDS011;54772;53.544;49.324;2022-12-05T16:07:07;18.42;;;9.95;;
67995;SDS011;54772;53.544;49.324;2022-12-05T16:09:56;13.30;;;8.60;;
67995;SDS011;54772;53.544;49.324;2022-12-05T16:12:43;13.55;;;7.53;;
67995;SDS011;54772;53.544;49.324;2022-12-05T16:15:30;15.65;;;8.52;;
67995;SDS011;54772;53.544;49.324;2022-12-05T16:18:24;17.05;;;9.43;;
67995;SDS011;54772;53.544;49.324;2022-12-05T16:21:31;15.45;;;9.57;;
67995;SDS011;54772;53.544;49.324;2022-12-05T16:24:27;15.55;;;9.68;;
67995;SDS011;54772;53.544;49.324;2022-12-05T16:27:16;16.87;;;9.65;;
67995;SDS011;54772;53.544;49.324;2022-12-05T16:30:20;14.60;;;9.13;;
67995;SDS011;54772;53.544;49.324;2022-12-05T16:33:14;16.20;;;8.95;;
67995;SDS011;54772;53.544;49.324;2022-12-05T16:36:10;15.98;;;9.75;;
67995;SDS011;54772;53.544;49.324;2022-12-05T16:39:04;14.65;;;8.93;;
67995;SDS011;54772;53.544;49.324;2022-12-05T16:41:51;17.33;;;9.45;;
67995;SDS011;54772;53.544;49.324;2022-12-05T16:53:26;21.02;;;11.40;;
67995;SDS011;54772;53.544;49.324;2022-12-05T16:56:15;23.73;;;11.10;;
67995;SDS011;54772;53.544;49.324;2022-12-05T16:59:02;19.08;;;10.90;;
67995;SDS011;54772;53.544;49.324;2022-12-05T17:01:50;16.45;;;9.88;;
67995;SDS011;54772;53.544;49.324;2022-12-05T17:04:37;18.60;;;11.00;;
67995;SDS011;54772;53.544;49.324;2022-12-05T17:07:24;22.40;;;10.88;;
67995;SDS011;54772;53.544;49.324;2022-12-05T17:10:10;20.02;;;10.70;;
67995;SDS011;54772;53.544;49.324;2022-12-05T17:12:57;22.42;;;10.95;;
67995;SDS011;54772;53.544;49.324;2022-12-05T17:15:45;19.27;;;11.50;;
67995;SDS011;54772;53.544;49.324;2022-12-05T17:18:32;19.30;;;10.95;;
67995;SDS011;54772;53.544;49.324;2022-12-05T17:21:20;22.55;;;12.68;;
67995;SDS011;54772;53.544;49.324;2022-12-05T17:24:15;25.55;;;15.73;;
67995;SDS011;54772;53.544;49.324;2022-12-05T17:27:04;27.02;;;13.65;;
67995;SDS011;54772;53.544;49.324;2022-12-05T17:29:53;25.23;;;13.13;;
67995;SDS011;54772;53.544;49.324;2022-12-05T17:32:39;19.00;;;11.57;;
67995;SDS011;54772;53.544;49.324;2022-12-05T17:35:26;19.00;;;10.95;;
67995;SDS011;54772;53.544;49.324;2022-12-05T17:38:14;17.40;;;10.50;;
67995;SDS011;54772;53.544;49.324;2022-12-05T17:41:01;16.02;;;9.50;;
67995;SDS011;54772;53.544;49.324;2022-12-05T17:43:48;15.38;;;9.18;;
67995;SDS011;54772;53.544;49.324;2022-12-05T17:46:35;15.82;;;8.57;;
67995;SDS011;54772;53.544;49.324;2022-12-05T17:49:22;14.52;;;8.48;;
67995;SDS011;54772;53.544;49.324;2022-12-05T17:52:09;14.57;;;9.15;;
67995;SDS011;54772;53.544;49.324;2022-12-05T17:54:56;15.45;;;8.07;;
67995;SDS011;54772;53.544;49.324;2022-12-05T17:57:43;16.95;;;8.77;;
67995;SDS011;54772;53.544;49.324;2022-12-05T18:00:30;15.57;;;8.95;;
67995;SDS011;54772;53.544;49.324;2022-12-05T18:03:17;13.32;;;8.68;;
67995;SDS011;54772;53.544;49.324;2022-12-05T18:06:04;13.95;;;9.00;;
67995;SDS011;54772;53.544;49.324;2022-12-05T18:08:50;16.12;;;10.85;;
67995;SDS011;54772;53.544;49.324;2022-12-05T18:11:37;21.60;;;11.05;;
67995;SDS011;54772;53.544;49.324;2022-12-05T18:14:24;15.73;;;10.23;;
67995;SDS011;54772;53.544;49.324;2022-12-05T18:17:12;18.58;;;10.80;;
67995;SDS011;54772;53.544;49.324;2022-12-05T18:19:59;16.12;;;10.95;;
67995;SDS011;54772;53.544;49.324;2022-12-05T18:22:45;14.02;;;9.35;;
67995;SDS011;54772;53.544;49.324;2022-12-05T18:25:33;12.05;;;8.23;;
67995;SDS011;54772;53.544;49.324;2022-12-05T18:28:20;13.35;;;8.50;;
67995;SDS011;54772;53.544;49.324;2022-12-05T18:33:56;12.63;;;7.45;;
67995;SDS011;54772;53.544;49.324;2022-12-05T18:36:42;14.25;;;8.63;;
67995;SDS011;54772;53.544;49.324;2022-12-05T18:39:29;14.00;;;8.15;;
67995;SDS011;54772;53.544;49.324;2022-12-05T18:42:15;14.63;;;9.32;;
67995;SDS011;54772;53.544;49.324;2022-12-05T18:45:02;16.45;;;9.57;;
67995;SDS011;54772;53.544;49.324;2022-12-05T18:47:49;16.70;;;11.15;;
67995;SDS011;54772;53.544;49.324;2022-12-05T18:50:36;19.45;;;11.00;;
67995;SDS011;54772;53.544;49.324;2022-12-05T18:53:23;18.60;;;10.45;;
67995;SDS011;54772;53.544;49.324;2022-12-05T18:56:10;20.00;;;10.38;;
67995;SDS011;54772;53.544;49.324;2022-12-05T18:58:58;17.77;;;10.60;;
67995;SDS011;54772;53.544;49.324;2022-12-05T19:01:49;19.30;;;12.20;;
67995;SDS011;54772;53.544;49.324;2022-12-05T19:07:22;19.27;;;11.12;;
67995;SDS011;54772;53.544;49.324;2022-12-05T19:10:08;20.55;;;10.98;;
67995;SDS011;54772;53.544;49.324;2022-12-05T19:13:13;17.37;;;10.75;;
67995;SDS011;54772;53.544;49.324;2022-12-05T19:16:04;19.92;;;11.48;;
67995;SDS011;54772;53.544;49.324;2022-12-05T19:18:54;19.62;;;11.30;;
67995;SDS011;54772;53.544;49.324;2022-12-05T19:21:45;18.15;;;11.68;;
67995;SDS011;54772;53.544;49.324;2022-12-05T19:24:31;20.10;;;11.85;;
67995;SDS011;54772;53.544;49.324;2022-12-05T19:27:18;20.37;;;11.20;;
67995;SDS011;54772;53.544;49.324;2022-12-05T19:30:05;19.52;;;10.32;;
67995;SDS011;54772;53.544;49.324;2022-12-05T19:32:52;19.95;;;10.13;;
67995;SDS011;54772;53.544;49.324;2022-12-05T19:35:39;19.45;;;11.07;;
67995;SDS011;54772;53.544;49.324;2022-12-05T19:38:28;16.48;;;9.35;;
67995;SDS011;54772;53.544;49.324;2022-12-05T19:41:17;17.62;;;10.70;;
67995;SDS011;54772;53.544;49.324;2022-12-05T19:44:06;18.48;;;10.30;;
67995;SDS011;54772;53.544;49.324;2022-12-05T19:46:52;21.60;;;10.77;;
67995;SDS011;54772;53.544;49.324;2022-12-05T19:49:42;18.50;;;8.35;;
67995;SDS011;54772;53.544;49.324;2022-12-05T19:55:15;14.57;;;9.18;;
67995;SDS011;54772;53.544;49.324;2022-12-05T20:00:49;16.55;;;9.40;;